Time;durP1;ratioP1;P1;durP2;ratioP2;P2;SDS_P1;SDS_P2;PMS_P1;PMS_P2;Temp;Humidity;BMP_temperature;BMP_pressure;BME280_temperature;BME280_humidity;BME280_pressure;Samples;Min_cycle;Max_cycle;Signal;HPM_P1;HPM_P2
2023/06/23 00:00:37;;;;;;;14.52;4.45;;;28.90;44.70;;;;;;5012963;28;20026;-71
2023/06/23 00:03:11;;;;;;;21.38;4.60;;;28.80;45.20;;;;;;4995402;28;20068;-70
2023/06/23 00:05:39;;;;;;;19.90;5.72;;;28.80;45.40;;;;;;5013142;28;20048;-70
2023/06/23 00:08:08;;;;;;;11.40;5.22;;;28.70;45.80;;;;;;5013363;28;20029;-71
2023/06/23 00:10:36;;;;;;;11.35;4.85;;;28.60;46.30;;;;;;5012934;28;20501;-71
2023/06/23 00:13:09;;;;;;;17.50;5.80;;;28.60;46.30;;;;;;4995718;28;20026;-72
2023/06/23 00:15:39;;;;;;;11.43;5.07;;;28.50;46.80;;;;;;4995117;28;20048;-70
2023/06/23 00:18:08;;;;;;;11.93;4.38;;;28.40;47.10;;;;;;4995473;28;20079;-70
2023/06/23 00:20:37;;;;;;;9.30;4.18;;;28.40;47.20;;;;;;5013328;28;20025;-70
2023/06/23 00:23:03;;;;;;;14.90;4.30;;;28.30;47.40;;;;;;4994577;28;20038;-71
2023/06/23 00:25:31;;;;;;;14.70;4.40;;;28.30;47.20;;;;;;5012942;28;20041;-70
2023/06/23 00:28:06;;;;;;;15.85;4.90;;;28.20;47.60;;;;;;5012811;28;20060;-72
2023/06/23 00:30:32;;;;;;;21.58;5.28;;;28.20;47.70;;;;;;4994948;28;20029;-71
2023/06/23 00:33:01;;;;;;;18.38;4.93;;;28.10;47.70;;;;;;4994908;28;20030;-71
2023/06/23 00:35:35;;;;;;;11.20;4.10;;;28.10;47.90;;;;;;5012736;28;20397;-71
2023/06/23 00:38:03;;;;;;;12.07;4.82;;;28.00;48.00;;;;;;5012690;28;20115;-70
2023/06/23 00:40:34;;;;;;;19.63;5.05;;;28.00;47.70;;;;;;4981961;28;20046;-71
2023/06/23 00:43:06;;;;;;;10.73;4.25;;;27.90;47.80;;;;;;5021083;28;20034;-70
2023/06/23 00:45:38;;;;;;;9.80;3.70;;;27.90;47.80;;;;;;5030171;28;20045;-71
2023/06/23 00:48:17;;;;;;;10.43;3.75;;;27.80;47.60;;;;;;5032205;28;20021;-70
2023/06/23 00:50:45;;;;;;;12.13;4.00;;;27.80;47.60;;;;;;5030069;28;20424;-71
2023/06/23 00:53:21;;;;;;;10.38;3.97;;;27.70;47.20;;;;;;4995814;28;20045;-71
2023/06/23 00:55:58;;;;;;;11.35;4.30;;;27.70;47.10;;;;;;5009958;28;20393;-71
2023/06/23 00:58:29;;;;;;;11.40;3.35;;;27.70;46.90;;;;;;5012381;28;20021;-70
2023/06/23 01:01:03;;;;;;;11.63;3.13;;;27.70;46.80;;;;;;5011506;28;20029;-70
2023/06/23 01:03:37;;;;;;;14.35;3.95;;;27.60;46.70;;;;;;5006523;28;20034;-71
2023/06/23 01:06:37;;;;;;;9.38;3.25;;;27.60;46.60;;;;;;4995373;28;20029;-70
2023/06/23 01:09:44;;;;;;;8.65;3.10;;;27.60;46.70;;;;;;4958432;28;20485;-70
2023/06/23 01:12:51;;;;;;;8.13;3.58;;;27.60;46.70;;;;;;5010265;28;20109;-71
2023/06/23 01:15:32;;;;;;;8.35;3.63;;;27.60;46.70;;;;;;5010914;28;20066;-71
2023/06/23 01:18:23;;;;;;;12.70;4.30;;;27.50;46.80;;;;;;5015672;28;20025;-71
2023/06/23 01:21:01;;;;;;;8.40;3.63;;;27.50;46.70;;;;;;5031939;28;20040;-70
2023/06/23 01:23:59;;;;;;;11.38;3.83;;;27.50;46.70;;;;;;5015788;28;20033;-71
2023/06/23 01:26:53;;;;;;;7.93;3.40;;;27.50;46.60;;;;;;5014022;28;20022;-70
2023/06/23 01:29:32;;;;;;;12.27;3.42;;;27.50;46.50;;;;;;5031352;28;20198;-70
2023/06/23 01:32:35;;;;;;;6.45;3.33;;;27.50;46.60;;;;;;5011860;28;20379;-71
2023/06/23 01:35:15;;;;;;;10.43;3.65;;;27.50;46.50;;;;;;5006733;28;20050;-72
2023/06/23 01:38:27;;;;;;;11.25;3.58;;;27.40;46.80;;;;;;5030596;28;20583;-70
2023/06/23 01:41:02;;;;;;;12.82;3.38;;;27.40;46.90;;;;;;5013768;28;20358;-70
2023/06/23 01:43:47;;;;;;;7.47;2.65;;;27.40;47.20;;;;;;5030723;28;20053;-70
2023/06/23 01:46:34;;;;;;;10.75;3.60;;;27.30;47.40;;;;;;5031668;28;20021;-70
2023/06/23 01:49:11;;;;;;;6.75;3.03;;;27.30;47.80;;;;;;5015726;28;20065;-70
2023/06/23 01:51:52;;;;;;;6.35;2.75;;;27.30;47.90;;;;;;5030409;28;20481;-70
2023/06/23 01:54:50;;;;;;;6.85;3.10;;;27.20;47.80;;;;;;5028826;28;20404;-71
2023/06/23 01:57:25;;;;;;;9.45;3.63;;;27.20;48.10;;;;;;5013593;28;20392;-71
2023/06/23 02:00:29;;;;;;;9.77;3.55;;;27.20;48.40;;;;;;5013978;28;20087;-71
2023/06/23 02:03:03;;;;;;;;;;;27.20;48.40;;;;;;5011952;28;20178;-71
2023/06/23 02:05:37;;;;;;;7.10;3.00;;;27.30;47.90;;;;;;5006291;28;19956;-71
2023/06/23 02:08:09;;;;;;;6.72;3.10;;;27.20;48.50;;;;;;5000206;28;20331;-70
2023/06/23 02:11:07;;;;;;;13.48;3.97;;;27.20;48.60;;;;;;5031054;28;20492;-71
2023/06/23 02:13:44;;;;;;;8.57;3.40;;;27.20;48.70;;;;;;5031590;28;20025;-71
2023/06/23 02:16:39;;;;;;;8.55;3.25;;;27.20;49.00;;;;;;5029027;28;20044;-70
2023/06/23 02:19:28;;;;;;;6.80;2.95;;;27.20;49.10;;;;;;5032531;28;20029;-71
2023/06/23 02:22:05;;;;;;;9.57;2.88;;;27.10;49.20;;;;;;5022916;28;20044;-71
2023/06/23 02:24:42;;;;;;;7.10;3.00;;;27.10;49.10;;;;;;5016643;28;20048;-70
2023/06/23 02:27:23;;;;;;;11.43;3.10;;;27.10;49.00;;;;;;5038491;28;20079;-70
2023/06/23 02:29:55;;;;;;;9.25;3.65;;;27.10;49.10;;;;;;5023212;28;20041;-71
2023/06/23 02:32:32;;;;;;;6.20;2.90;;;27.10;49.20;;;;;;5029507;28;20116;-71
2023/06/23 02:35:02;;;;;;;11.07;3.70;;;27.00;49.20;;;;;;5015665;28;20026;-71
2023/06/23 02:37:33;;;;;;;6.60;2.83;;;27.00;49.50;;;;;;5018358;28;20576;-70
2023/06/23 02:40:21;;;;;;;11.02;3.70;;;27.00;49.40;;;;;;5024397;28;20074;-70
2023/06/23 02:43:18;;;;;;;9.95;3.55;;;27.00;49.60;;;;;;5014887;28;20073;-71
2023/06/23 02:45:57;;;;;;;5.53;3.20;;;27.00;49.70;;;;;;5034880;28;20044;-71
2023/06/23 02:48:53;;;;;;;10.02;3.42;;;27.00;49.70;;;;;;5016498;28;20388;-70
2023/06/23 02:51:34;;;;;;;11.82;3.28;;;26.90;50.00;;;;;;5033319;28;20035;-71
2023/06/23 02:54:21;;;;;;;8.75;3.28;;;26.90;50.10;;;;;;5033314;28;20045;-70
2023/06/23 02:57:21;;;;;;;14.65;3.30;;;26.90;50.10;;;;;;5016144;28;20043;-70
2023/06/23 02:59:54;;;;;;;11.13;3.10;;;26.80;50.10;;;;;;5033722;28;20109;-71
2023/06/23 03:02:34;;;;;;;9.77;4.22;;;26.80;50.30;;;;;;5033757;28;20033;-72
2023/06/23 03:05:05;;;;;;;14.63;3.80;;;26.80;50.50;;;;;;5013599;28;20056;-71
2023/06/23 03:07:42;;;;;;;8.60;3.83;;;26.80;50.80;;;;;;5034444;28;20029;-70
2023/06/23 03:10:35;;;;;;;7.45;3.17;;;26.70;50.80;;;;;;5032631;28;20551;-70
2023/06/23 03:13:16;;;;;;;7.22;3.35;;;26.60;50.80;;;;;;5016156;28;20045;-72
2023/06/23 03:16:36;;;;;;;11.60;3.95;;;26.60;50.80;;;;;;5039597;28;20428;-71
2023/06/23 03:19:21;;;;;;;12.75;3.60;;;26.60;51.00;;;;;;5009448;28;20045;-70
2023/06/23 03:22:09;;;;;;;6.45;3.13;;;26.60;51.50;;;;;;5033312;28;20048;-71
2023/06/23 03:24:45;;;;;;;6.60;3.05;;;26.60;51.60;;;;;;5031896;28;20405;-71
2023/06/23 03:27:24;;;;;;;6.43;3.33;;;26.50;51.90;;;;;;5015452;28;20033;-72
2023/06/23 03:30:08;;;;;;;6.07;2.80;;;26.50;52.20;;;;;;5032184;28;20026;-70
2023/06/23 03:33:06;;;;;;;10.43;3.72;;;26.40;52.10;;;;;;5013215;28;20271;-70
2023/06/23 03:35:50;;;;;;;19.50;4.60;;;26.30;52.30;;;;;;5015593;28;20021;-71
2023/06/23 03:38:25;;;;;;;;;;;26.30;52.70;;;;;;5009719;28;20087;-70
2023/06/23 03:41:02;;;;;;;12.80;3.78;;;26.30;52.00;;;;;;5015519;28;19913;-71
2023/06/23 03:43:59;;;;;;;8.93;3.72;;;26.30;53.70;;;;;;5029683;28;20036;-70
2023/06/23 03:47:09;;;;;;;6.38;3.60;;;26.20;53.90;;;;;;5005990;28;20470;-72
2023/06/23 03:49:50;;;;;;;11.52;3.45;;;26.10;53.90;;;;;;5018694;28;20467;-71
2023/06/23 03:52:24;;;;;;;11.60;3.47;;;26.00;54.20;;;;;;5032684;28;20029;-70
2023/06/23 03:54:55;;;;;;;11.65;4.35;;;26.00;54.30;;;;;;5014872;28;20029;-71
2023/06/23 03:57:39;;;;;;;9.80;4.15;;;25.90;54.50;;;;;;5030985;28;20465;-70
2023/06/23 04:00:28;;;;;;;13.98;4.35;;;25.80;54.90;;;;;;5027010;28;20034;-70
2023/06/23 04:03:03;;;;;;;6.10;3.30;;;25.80;55.00;;;;;;5032218;28;20033;-70
2023/06/23 04:05:40;;;;;;;8.55;4.07;;;25.80;55.10;;;;;;5032440;28;20025;-70
2023/06/23 04:08:24;;;;;;;9.25;3.67;;;25.80;55.70;;;;;;5031481;28;20413;-71
2023/06/23 04:10:59;;;;;;;7.90;3.40;;;25.70;55.50;;;;;;5031530;28;20026;-71
2023/06/23 04:13:38;;;;;;;8.27;4.05;;;25.70;55.30;;;;;;5030859;28;20456;-69
2023/06/23 04:16:23;;;;;;;9.02;3.55;;;25.70;55.30;;;;;;5012917;28;20112;-71
2023/06/23 04:19:10;;;;;;;10.23;3.47;;;25.60;55.10;;;;;;5029917;28;20029;-70
2023/06/23 04:21:50;;;;;;;9.32;3.20;;;25.60;55.10;;;;;;5026367;28;20874;-70
2023/06/23 04:24:42;;;;;;;8.45;3.40;;;25.60;55.20;;;;;;5029496;28;20038;-73
2023/06/23 04:27:17;;;;;;;8.15;3.10;;;25.60;55.50;;;;;;5013762;28;20021;-70
2023/06/23 04:29:58;;;;;;;15.80;4.50;;;25.60;55.80;;;;;;5029750;28;20033;-71
2023/06/23 04:32:33;;;;;;;15.80;3.63;;;25.60;56.40;;;;;;5023977;28;20036;-71
2023/06/23 04:35:12;;;;;;;6.45;3.17;;;25.50;57.10;;;;;;5028405;28;20393;-72
2023/06/23 04:38:24;;;;;;;8.63;3.53;;;25.50;56.70;;;;;;5028432;28;20047;-70
2023/06/23 04:41:13;;;;;;;6.22;2.67;;;25.50;56.00;;;;;;4997514;28;20045;-71
2023/06/23 04:43:58;;;;;;;5.35;2.30;;;25.50;55.50;;;;;;5030583;28;20068;-70
2023/06/23 04:46:53;;;;;;;4.30;2.38;;;25.50;55.10;;;;;;5024987;28;20084;-71
2023/06/23 04:49:32;;;;;;;4.07;2.47;;;25.60;55.00;;;;;;5030813;28;20044;-71
2023/06/23 04:52:19;;;;;;;6.00;2.67;;;25.60;55.10;;;;;;5011624;28;20143;-71
2023/06/23 04:54:59;;;;;;;5.18;2.40;;;25.70;55.20;;;;;;5013230;28;20433;-70
2023/06/23 04:57:47;;;;;;;6.68;2.63;;;25.80;55.20;;;;;;5008558;28;20033;-70
2023/06/23 05:00:23;;;;;;;6.57;2.85;;;25.80;54.70;;;;;;5011248;28;20021;-71
2023/06/23 05:03:14;;;;;;;5.65;2.35;;;25.90;54.60;;;;;;5028052;28;20036;-70
2023/06/23 05:06:13;;;;;;;5.82;2.45;;;26.00;54.70;;;;;;5030307;28;20048;-70
2023/06/23 05:08:53;;;;;;;6.72;2.50;;;26.00;55.00;;;;;;5030157;28;20045;-71
2023/06/23 05:11:28;;;;;;;3.97;2.25;;;26.10;54.70;;;;;;5029644;28;20042;-71
2023/06/23 05:14:07;;;;;;;7.72;2.47;;;26.20;55.00;;;;;;5029384;28;20102;-71
2023/06/23 05:16:45;;;;;;;4.25;2.42;;;26.20;54.60;;;;;;5010567;28;20065;-71
2023/06/23 05:19:27;;;;;;;8.45;2.55;;;26.30;54.70;;;;;;5009946;28;20448;-71
2023/06/23 05:22:12;;;;;;;4.68;2.20;;;26.40;54.40;;;;;;4984096;28;20061;-72
2023/06/23 05:25:04;;;;;;;6.63;2.53;;;26.50;54.60;;;;;;5013816;28;20136;-71
2023/06/23 05:28:00;;;;;;;9.90;2.70;;;26.50;54.10;;;;;;5028554;28;20041;-71
2023/06/23 05:30:40;;;;;;;7.45;2.85;;;26.50;53.90;;;;;;5011104;28;20038;-71
2023/06/23 05:33:40;;;;;;;8.00;3.88;;;26.40;53.60;;;;;;5011891;28;20104;-72
2023/06/23 05:36:20;;;;;;;9.38;3.10;;;26.40;53.90;;;;;;5030814;28;20116;-71
2023/06/23 05:39:02;;;;;;;10.43;3.92;;;26.40;53.30;;;;;;5031402;28;20025;-71
2023/06/23 05:41:42;;;;;;;6.68;3.00;;;26.40;53.20;;;;;;5012214;28;20033;-71
2023/06/23 05:45:02;;;;;;;7.97;4.60;;;26.50;53.10;;;;;;5026973;28;20049;-71
2023/06/23 05:48:09;;;;;;;7.45;3.78;;;26.60;52.70;;;;;;5007896;28;20098;-71
2023/06/23 05:51:11;;;;;;;4.13;2.63;;;26.60;52.70;;;;;;5015016;28;20132;-71
2023/06/23 05:54:15;;;;;;;5.90;3.03;;;26.70;52.30;;;;;;5014379;28;20403;-71
2023/06/23 05:57:18;;;;;;;6.90;3.70;;;26.80;52.00;;;;;;4997393;28;20034;-71
2023/06/23 06:00:13;;;;;;;8.60;4.35;;;26.80;51.90;;;;;;5015016;28;20034;-71
2023/06/23 06:03:02;;;;;;;5.70;3.30;;;26.90;51.40;;;;;;5015464;28;20026;-70
2023/06/23 06:06:06;;;;;;;;;;;;;;;;;;;;;
2023/06/23 06:09:02;;;;;;;10.98;6.75;;;27.10;51.10;;;;;;5020232;28;20030;-71
2023/06/23 06:11:55;;;;;;;7.75;5.38;;;27.20;51.10;;;;;;5019238;28;20598;-71
2023/06/23 06:14:46;;;;;;;5.80;3.28;;;27.30;51.30;;;;;;5017764;28;20034;-71
2023/06/23 06:17:33;;;;;;;4.25;2.50;;;27.30;50.80;;;;;;5033798;28;20068;-71
2023/06/23 06:20:14;;;;;;;7.57;3.35;;;27.30;50.70;;;;;;5023699;28;20036;-76
2023/06/23 06:23:05;;;;;;;6.93;3.25;;;27.30;50.60;;;;;;4993032;28;20125;-77
2023/06/23 06:25:51;;;;;;;14.20;3.47;;;27.30;50.40;;;;;;5003626;28;20544;-75
2023/06/23 06:28:41;;;;;;;10.13;4.47;;;27.40;50.80;;;;;;5017947;28;20492;-76
2023/06/23 06:31:21;;;;;;;9.23;3.70;;;27.40;50.20;;;;;;5017828;28;20018;-76
2023/06/23 06:34:26;;;;;;;12.95;4.55;;;27.30;49.80;;;;;;5017740;28;20034;-74
2023/06/23 06:36:56;;;;;;;8.43;3.97;;;27.40;50.20;;;;;;5035383;28;20030;-74
2023/06/23 06:39:41;;;;;;;7.72;4.47;;;27.40;50.20;;;;;;5017360;28;20082;-75
2023/06/23 06:42:24;;;;;;;7.03;3.40;;;27.30;50.00;;;;;;5017107;28;20634;-75
2023/06/23 06:45:07;;;;;;;6.28;3.35;;;27.40;50.10;;;;;;5033042;28;20053;-75
2023/06/23 06:47:44;;;;;;;5.35;2.63;;;27.40;49.80;;;;;;5031559;28;20038;-75
2023/06/23 06:50:23;;;;;;;4.80;2.88;;;27.40;49.20;;;;;;5017337;28;20050;-75
2023/06/23 06:53:07;;;;;;;4.28;2.00;;;27.40;49.20;;;;;;5022241;28;20041;-78
2023/06/23 06:55:41;;;;;;;3.60;1.95;;;27.40;49.20;;;;;;5029052;28;20045;-76
2023/06/23 06:58:13;;;;;;;5.90;2.85;;;27.40;49.10;;;;;;5033970;28;20108;-75
2023/06/23 07:00:46;;;;;;;5.90;2.50;;;27.40;49.10;;;;;;5028412;28;20388;-75
2023/06/23 07:03:53;;;;;;;5.30;2.20;;;27.40;48.80;;;;;;5002212;28;20048;-76
2023/06/23 07:06:36;;;;;;;6.20;3.30;;;27.30;48.60;;;;;;5017224;28;20037;-75
2023/06/23 07:09:09;;;;;;;8.77;3.33;;;27.30;47.90;;;;;;5034889;28;20021;-75
2023/06/23 07:11:50;;;;;;;4.00;2.28;;;27.40;48.40;;;;;;5033111;28;20033;-75
2023/06/23 07:14:31;;;;;;;3.03;1.98;;;27.40;47.60;;;;;;5018228;28;20041;-76
2023/06/23 07:17:22;;;;;;;7.75;2.10;;;27.50;47.20;;;;;;4994606;28;20045;-78
2023/06/23 07:20:00;;;;;;;3.83;2.42;;;27.60;47.40;;;;;;5006577;28;20037;-75
2023/06/23 07:22:45;;;;;;;3.53;2.35;;;27.70;47.00;;;;;;5014774;28;20048;-75
2023/06/23 07:25:19;;;;;;;5.72;2.30;;;27.80;46.40;;;;;;5011960;28;20047;-75
2023/06/23 07:27:55;;;;;;;17.27;2.30;;;27.90;46.60;;;;;;4996880;28;20061;-75
2023/06/23 07:30:27;;;;;;;4.65;2.05;;;27.90;46.30;;;;;;5014477;28;20056;-75
2023/06/23 07:33:16;;;;;;;3.72;2.47;;;28.00;46.70;;;;;;5014301;28;20030;-75
2023/06/23 07:36:28;;;;;;;7.28;2.40;;;27.90;46.20;;;;;;4999517;28;20049;-80
2023/06/23 07:39:10;;;;;;;4.82;1.50;;;28.00;46.50;;;;;;4997265;28;20038;-76
2023/06/23 07:41:49;;;;;;;2.47;1.88;;;28.00;45.80;;;;;;5027174;28;20092;-76
2023/06/23 07:44:32;;;;;;;2.47;1.40;;;28.00;45.30;;;;;;5014435;28;20565;-77
2023/06/23 07:47:24;;;;;;;6.80;1.92;;;28.00;45.40;;;;;;5028163;28;20136;-77
2023/06/23 07:50:26;;;;;;;1.58;1.27;;;28.10;45.70;;;;;;5013982;28;20103;-77
2023/06/23 07:52:57;;;;;;;1.20;0.88;;;28.20;45.40;;;;;;5034054;28;20033;-78
2023/06/23 07:55:33;;;;;;;1.15;1.05;;;28.30;44.80;;;;;;5016510;28;20030;-76
2023/06/23 07:58:13;;;;;;;1.05;0.95;;;28.40;44.60;;;;;;5033695;28;20417;-80
2023/06/23 08:01:09;;;;;;;2.25;1.30;;;28.50;44.10;;;;;;5033560;28;20354;-79
2023/06/23 08:03:46;;;;;;;3.72;1.10;;;28.60;43.90;;;;;;5026291;28;20136;-79
2023/06/23 08:06:23;;;;;;;0.93;0.82;;;28.80;43.50;;;;;;5016130;28;20041;-80
2023/06/23 08:08:56;;;;;;;1.67;1.40;;;28.90;43.70;;;;;;5032130;28;20175;-77
2023/06/23 08:11:49;;;;;;;1.48;1.27;;;28.90;43.20;;;;;;4990754;28;20038;-80
2023/06/23 08:15:12;;;;;;;1.10;1.00;;;28.90;43.40;;;;;;5015844;28;20083;-78
2023/06/23 08:17:59;;;;;;;1.45;1.05;;;28.90;43.50;;;;;;5020412;28;20033;-79
2023/06/23 08:20:37;;;;;;;3.72;1.30;;;28.90;42.90;;;;;;5015895;28;20036;-79
2023/06/23 08:23:21;;;;;;;1.23;0.93;;;28.90;43.00;;;;;;5032668;28;20094;-80
2023/06/23 08:26:32;;;;;;;4.32;1.45;;;28.90;42.90;;;;;;5015110;28;20041;-80
2023/06/23 08:29:17;;;;;;;1.65;1.15;;;28.80;43.40;;;;;;5015422;28;20037;-79
2023/06/23 08:32:06;;;;;;;4.10;1.77;;;28.70;43.20;;;;;;5015690;28;20362;-79
2023/06/23 08:34:54;;;;;;;3.92;1.38;;;28.60;43.60;;;;;;5024798;28;20045;-78
2023/06/23 08:37:45;;;;;;;1.65;1.35;;;28.60;42.90;;;;;;5031380;28;20045;-79
2023/06/23 08:40:31;;;;;;;3.67;1.20;;;28.60;42.90;;;;;;5015835;28;20030;-78
2023/06/23 08:43:10;;;;;;;2.03;1.25;;;28.60;43.20;;;;;;5033526;28;20030;-79
2023/06/23 08:46:09;;;;;;;3.05;1.00;;;28.60;43.20;;;;;;5015224;28;20040;-79
2023/06/23 08:48:50;;;;;;;1.95;0.90;;;28.60;43.20;;;;;;5032203;28;20037;-81
2023/06/23 08:51:36;;;;;;;1.90;1.00;;;28.70;43.30;;;;;;5011717;28;20034;-79
2023/06/23 08:54:21;;;;;;;5.05;1.13;;;28.80;43.40;;;;;;5032717;28;20052;-79
2023/06/23 08:57:16;;;;;;;1.80;1.10;;;28.80;43.50;;;;;;5028665;28;20132;-79
2023/06/23 09:00:23;;;;;;;2.33;0.88;;;28.80;42.50;;;;;;5032881;28;20033;-78
2023/06/23 09:02:54;;;;;;;1.52;1.02;;;28.80;42.60;;;;;;5032231;28;20051;-80
2023/06/23 09:05:53;;;;;;;0.68;0.68;;;28.70;42.40;;;;;;5031993;28;20539;-78
2023/06/23 09:08:44;;;;;;;3.42;0.98;;;28.70;43.10;;;;;;4990113;28;20029;-79
2023/06/23 09:11:35;;;;;;;1.48;0.93;;;28.60;42.80;;;;;;5026522;28;20045;-80
2023/06/23 09:14:27;;;;;;;3.88;1.10;;;28.60;43.20;;;;;;5015427;28;20120;-79
2023/06/23 09:17:09;;;;;;;3.40;0.80;;;28.50;43.10;;;;;;5014929;28;20033;-81
2023/06/23 09:19:55;;;;;;;5.47;0.90;;;28.40;43.30;;;;;;5031125;28;20033;-79
2023/06/23 09:22:30;;;;;;;2.10;0.80;;;28.40;43.50;;;;;;5014016;28;20492;-79
2023/06/23 09:25:13;;;;;;;3.42;1.50;;;28.40;43.60;;;;;;4998529;28;20041;-79
2023/06/23 09:27:51;;;;;;;2.17;1.08;;;28.30;43.60;;;;;;5032616;28;20655;-80
2023/06/23 09:30:43;;;;;;;2.42;1.38;;;28.30;43.90;;;;;;5032585;28;20059;-80
2023/06/23 09:33:35;;;;;;;1.63;1.00;;;28.20;44.00;;;;;;5030262;28;20045;-80
2023/06/23 09:36:10;;;;;;;3.42;1.48;;;28.20;44.30;;;;;;5013912;28;20038;-79
2023/06/23 09:38:43;;;;;;;2.33;0.88;;;28.10;48.20;;;;;;5030892;28;21239;-79
2023/06/23 09:41:25;;;;;;;1.70;0.90;;;28.00;49.00;;;;;;5013048;28;20157;-78
2023/06/23 09:44:18;;;;;;;1.92;1.30;;;27.80;48.80;;;;;;4999064;28;20077;-80
2023/06/23 09:47:03;;;;;;;5.60;1.05;;;27.60;49.20;;;;;;5015710;28;20041;-80
2023/06/23 09:49:52;;;;;;;2.38;1.10;;;27.50;49.00;;;;;;5030892;28;20033;-81
2023/06/23 09:53:08;;;;;;;6.70;1.05;;;27.40;49.60;;;;;;5011385;28;20029;-80
2023/06/23 09:56:11;;;;;;;3.22;0.80;;;27.40;48.60;;;;;;5032032;28;20025;-79
2023/06/23 09:58:48;;;;;;;1.83;0.88;;;27.50;49.00;;;;;;5029298;28;20029;-79
2023/06/23 10:01:40;;;;;;;1.00;0.90;;;27.70;48.90;;;;;;5016365;28;20346;-79
2023/06/23 10:04:49;;;;;;;1.98;1.40;;;27.80;48.30;;;;;;5031759;28;20436;-79
2023/06/23 10:07:32;;;;;;;1.40;1.20;;;28.00;47.30;;;;;;5015293;28;20481;-79
2023/06/23 10:10:26;;;;;;;2.45;1.55;;;28.20;46.40;;;;;;5029716;28;20045;-80
2023/06/23 10:13:09;;;;;;;2.33;1.90;;;28.30;46.30;;;;;;5007523;28;20044;-79
2023/06/23 10:15:52;;;;;;;3.65;2.05;;;28.30;45.20;;;;;;5014094;28;20087;-79
2023/06/23 10:18:43;;;;;;;3.03;2.20;;;28.30;44.10;;;;;;5014529;28;20036;-79
2023/06/23 10:21:30;;;;;;;3.72;2.35;;;28.40;44.10;;;;;;4997583;28;20025;-79
2023/06/23 10:24:22;;;;;;;2.28;1.90;;;28.50;44.50;;;;;;5031815;28;20025;-79
2023/06/23 10:27:00;;;;;;;2.28;2.08;;;28.50;44.20;;;;;;5014307;28;20040;-80
2023/06/23 10:29:45;;;;;;;2.40;2.20;;;28.60;43.60;;;;;;5032039;28;20035;-79
2023/06/23 10:32:27;;;;;;;4.38;2.28;;;28.70;43.80;;;;;;5032089;28;20064;-80
2023/06/23 10:35:21;;;;;;;3.95;2.70;;;28.80;43.80;;;;;;5035746;28;20026;-80
2023/06/23 10:38:33;;;;;;;3.25;2.47;;;28.80;43.40;;;;;;5034806;28;20030;-79
2023/06/23 10:41:44;;;;;;;;;;;;;;;;;;;;;
2023/06/23 10:44:19;;;;;;;3.55;2.75;;;28.80;42.80;;;;;;5035395;28;20029;-80
2023/06/23 10:46:53;;;;;;;2.80;2.50;;;28.70;43.20;;;;;;5017750;28;20044;-80
2023/06/23 10:49:25;;;;;;;2.60;2.40;;;28.60;43.10;;;;;;5017703;28;20037;-80
2023/06/23 10:52:00;;;;;;;3.53;3.22;;;28.60;43.30;;;;;;5017682;28;20491;-80
2023/06/23 10:54:44;;;;;;;3.42;2.70;;;28.50;42.70;;;;;;5035596;28;20369;-80
2023/06/23 10:57:18;;;;;;;3.13;2.72;;;28.60;43.30;;;;;;5035170;28;20029;-80
2023/06/23 11:00:08;;;;;;;3.15;2.85;;;28.70;42.80;;;;;;5035153;28;20036;-80
2023/06/23 11:03:27;;;;;;;4.80;2.90;;;28.80;43.10;;;;;;5017634;28;20091;-80
2023/06/23 11:06:01;;;;;;;7.90;3.13;;;28.90;43.40;;;;;;5035147;28;20109;-79
2023/06/23 11:09:05;;;;;;;6.47;2.83;;;29.10;42.50;;;;;;5017477;28;20025;-80
2023/06/23 11:11:36;;;;;;;4.25;3.45;;;29.10;42.30;;;;;;5016195;28;20076;-79
2023/06/23 11:14:18;;;;;;;3.50;2.63;;;29.10;42.00;;;;;;5017623;28;20029;-79
2023/06/23 11:16:55;;;;;;;3.50;2.90;;;28.90;41.90;;;;;;5035144;28;20034;-79
2023/06/23 11:19:38;;;;;;;3.95;3.00;;;28.80;41.90;;;;;;5017242;28;20120;-79
2023/06/23 11:22:12;;;;;;;3.72;2.95;;;28.60;42.10;;;;;;5020171;28;20100;-79
2023/06/23 11:25:05;;;;;;;3.58;3.03;;;28.60;42.70;;;;;;5034819;28;20033;-80
2023/06/23 11:27:38;;;;;;;6.53;3.60;;;28.50;42.80;;;;;;5016828;28;20141;-80
2023/06/23 11:30:22;;;;;;;3.85;3.20;;;28.50;42.20;;;;;;5034841;28;20021;-79
2023/06/23 11:33:27;;;;;;;5.60;3.90;;;28.50;42.50;;;;;;5017862;28;20040;-80
2023/06/23 11:36:00;;;;;;;12.20;3.60;;;28.40;41.70;;;;;;5018062;28;20029;-80
2023/06/23 11:38:37;;;;;;;6.40;4.07;;;28.50;41.80;;;;;;5034439;28;20034;-79
2023/06/23 11:41:15;;;;;;;4.28;3.22;;;28.50;41.70;;;;;;5017726;28;20048;-79
2023/06/23 11:43:51;;;;;;;4.80;3.70;;;28.60;42.10;;;;;;5018059;28;20087;-80
2023/06/23 11:46:27;;;;;;;4.57;3.55;;;28.70;41.80;;;;;;5018300;28;20025;-79
2023/06/23 11:49:10;;;;;;;10.13;3.60;;;28.90;41.40;;;;;;5036457;28;20034;-80
2023/06/23 11:51:43;;;;;;;6.33;4.17;;;28.90;41.50;;;;;;5036185;28;20045;-78
2023/06/23 11:54:22;;;;;;;4.22;3.67;;;28.90;40.70;;;;;;5038590;28;20044;-80
2023/06/23 11:57:03;;;;;;;9.32;3.88;;;28.80;41.00;;;;;;5026231;28;20072;-80
2023/06/23 11:59:36;;;;;;;11.00;4.57;;;28.60;42.70;;;;;;5028105;28;20033;-80
2023/06/23 12:02:12;;;;;;;5.20;3.53;;;28.40;43.40;;;;;;5031207;28;20017;-79
2023/06/23 12:04:43;;;;;;;7.28;4.90;;;28.20;43.90;;;;;;5044395;28;20041;-80
2023/06/23 12:07:19;;;;;;;6.57;4.60;;;27.90;45.70;;;;;;5016225;28;20469;-79
2023/06/23 12:10:02;;;;;;;7.25;4.13;;;27.70;47.20;;;;;;5033416;28;20036;-79
2023/06/23 12:12:38;;;;;;;4.87;4.03;;;27.50;47.00;;;;;;5033632;28;20029;-79
2023/06/23 12:15:16;;;;;;;6.30;4.45;;;27.40;46.40;;;;;;5033260;28;20264;-79
2023/06/23 12:17:45;;;;;;;5.22;3.67;;;27.30;45.40;;;;;;5033332;28;20034;-79
2023/06/23 12:20:23;;;;;;;7.47;4.18;;;27.20;45.70;;;;;;5034742;28;20025;-79
2023/06/23 12:22:57;;;;;;;4.20;3.80;;;27.10;46.50;;;;;;5032020;28;20072;-79
2023/06/23 12:25:37;;;;;;;;;;;27.00;47.10;;;;;;5033979;28;20033;-79
2023/06/23 12:28:14;;;;;;;4.20;3.58;;;26.90;46.20;;;;;;5033469;28;19905;-78
2023/06/23 12:30:51;;;;;;;6.15;4.60;;;26.80;46.60;;;;;;5015716;28;20026;-79
2023/06/23 12:33:24;;;;;;;5.90;4.28;;;26.60;46.50;;;;;;5032782;28;20120;-79
2023/06/23 12:36:03;;;;;;;5.20;4.38;;;26.50;46.30;;;;;;5035321;28;20026;-80
2023/06/23 12:38:40;;;;;;;5.47;4.63;;;26.50;46.70;;;;;;5036993;28;20064;-79
2023/06/23 12:41:27;;;;;;;7.25;4.25;;;26.40;46.30;;;;;;5033826;28;20104;-79
2023/06/23 12:44:03;;;;;;;5.55;4.95;;;26.30;46.30;;;;;;5033450;28;20103;-79
2023/06/23 12:46:39;;;;;;;7.95;4.60;;;26.30;46.20;;;;;;5033694;28;20373;-79
2023/06/23 12:49:20;;;;;;;6.70;4.63;;;26.40;46.50;;;;;;5033346;28;20026;-79
2023/06/23 12:51:56;;;;;;;5.28;4.47;;;26.40;46.50;;;;;;5015700;28;20112;-79
2023/06/23 12:54:33;;;;;;;7.43;4.53;;;26.40;47.00;;;;;;5015607;28;20033;-79
2023/06/23 12:57:14;;;;;;;8.57;4.95;;;26.40;46.30;;;;;;5032567;28;20033;-79
2023/06/23 12:59:50;;;;;;;6.20;5.18;;;26.40;46.80;;;;;;5033247;28;20029;-79
2023/06/23 13:02:25;;;;;;;7.22;4.90;;;26.50;46.70;;;;;;5032079;28;20030;-79
2023/06/23 13:04:58;;;;;;;10.95;5.88;;;26.60;46.90;;;;;;5032539;28;20029;-79
2023/06/23 13:07:29;;;;;;;5.28;4.38;;;26.60;46.90;;;;;;5015379;28;20051;-79
2023/06/23 13:10:09;;;;;;;6.20;5.15;;;26.90;47.00;;;;;;5015236;28;20613;-80
2023/06/23 13:12:40;;;;;;;7.80;4.97;;;27.10;46.80;;;;;;5032696;28;20536;-80
2023/06/23 13:15:14;;;;;;;9.05;5.60;;;27.50;46.20;;;;;;5031713;28;20420;-79
2023/06/23 13:17:45;;;;;;;5.25;4.60;;;27.80;45.40;;;;;;5032910;28;20120;-79
2023/06/23 13:20:14;;;;;;;6.45;4.40;;;28.10;45.60;;;;;;5032733;28;20033;-80
2023/06/23 13:22:45;;;;;;;7.05;5.28;;;28.40;45.00;;;;;;5031100;28;20028;-80
2023/06/23 13:25:17;;;;;;;5.28;4.70;;;28.70;44.10;;;;;;5011624;28;20072;-79
2023/06/23 13:27:45;;;;;;;6.00;4.75;;;29.00;43.90;;;;;;5011575;28;20030;-81
2023/06/23 13:30:21;;;;;;;6.38;4.47;;;29.20;43.10;;;;;;4995354;28;20029;-78
2023/06/23 13:33:05;;;;;;;12.15;4.80;;;29.50;43.30;;;;;;5011848;28;20078;-81
2023/06/23 13:35:36;;;;;;;6.30;4.85;;;29.60;41.40;;;;;;4994722;28;20478;-80
2023/06/23 13:38:12;;;;;;;5.10;4.25;;;29.80;41.40;;;;;;4995372;28;20112;-80
2023/06/23 13:40:43;;;;;;;7.05;4.32;;;29.90;41.50;;;;;;5012764;28;20030;-79
2023/06/23 13:43:08;;;;;;;10.20;4.90;;;30.00;41.10;;;;;;4998370;28;20347;-79
2023/06/23 13:45:42;;;;;;;5.93;4.45;;;30.10;40.50;;;;;;5015078;28;20033;-80
2023/06/23 13:48:18;;;;;;;9.95;4.60;;;30.10;40.10;;;;;;5032704;28;20022;-80
2023/06/23 13:50:51;;;;;;;5.20;4.50;;;30.20;39.10;;;;;;5032267;28;20086;-79
2023/06/23 13:53:32;;;;;;;8.95;5.28;;;30.20;39.00;;;;;;5032486;28;20034;-79
2023/06/23 13:56:08;;;;;;;6.72;4.90;;;30.10;38.30;;;;;;5015088;28;20037;-81
2023/06/23 13:58:47;;;;;;;9.63;5.43;;;30.00;38.10;;;;;;5013902;28;20037;-80
2023/06/23 14:01:29;;;;;;;7.85;5.13;;;29.90;39.10;;;;;;5014630;28;20473;-79
2023/06/23 14:04:00;;;;;;;7.72;4.28;;;29.70;38.60;;;;;;5032164;28;20045;-80
2023/06/23 14:06:33;;;;;;;9.95;5.43;;;29.70;39.00;;;;;;5015108;28;20180;-80
2023/06/23 14:09:09;;;;;;;9.07;5.10;;;29.60;38.60;;;;;;5034879;28;20434;-79